createdAt,value
2018-08-04T00:00:31.787Z,25.07
2018-08-04T00:05:26.482Z,25.21
2018-08-04T00:10:22.086Z,25.40
2018-08-04T00:15:17.000Z,25.34
2018-08-04T00:20:11.629Z,25.22
2018-08-04T00:25:06.415Z,25.02
2018-08-04T00:30:01.052Z,24.99
2018-08-04T00:34:55.678Z,24.96
2018-08-04T00:39:50.472Z,25.02
2018-08-04T00:44:45.127Z,25.13
2018-08-04T00:49:39.778Z,24.98
2018-08-04T00:54:34.345Z,24.99
2018-08-04T00:59:28.976Z,24.89
2018-08-04T01:04:23.666Z,24.80
2018-08-04T01:09:18.266Z,24.75
2018-08-04T01:14:12.879Z,24.48
2018-08-04T01:19:07.493Z,24.14
2018-08-04T01:24:02.033Z,24.20
2018-08-04T01:28:57.525Z,24.49
2018-08-04T01:33:52.126Z,24.50
2018-08-04T01:38:46.752Z,24.36
2018-08-04T01:43:41.382Z,24.31
2018-08-04T01:48:36.033Z,24.19
2018-08-04T01:53:30.722Z,24.05
2018-08-04T01:58:25.315Z,23.93
2018-08-04T02:03:19.923Z,24.05
2018-08-04T02:08:14.526Z,23.84
2018-08-04T02:13:09.193Z,23.86
2018-08-04T02:18:03.804Z,23.85
2018-08-04T02:22:58.396Z,23.78
2018-08-04T02:27:52.695Z,23.86
2018-08-04T02:32:47.265Z,23.69
2018-08-04T02:37:41.959Z,23.63
2018-08-04T02:42:36.594Z,23.77
2018-08-04T02:47:31.170Z,23.61
2018-08-04T02:52:26.089Z,23.49
2018-08-04T02:57:20.704Z,23.30
2018-08-04T03:02:15.369Z,23.39
2018-08-04T03:07:10.275Z,23.18
2018-08-04T03:12:05.329Z,22.92
2018-08-04T03:16:59.880Z,23.34
2018-08-04T03:21:54.538Z,23.32
2018-08-04T03:26:49.142Z,23.17
2018-08-04T03:31:43.784Z,23.06
2018-08-04T03:36:38.934Z,23.13
2018-08-04T03:41:33.592Z,23.17
2018-08-04T03:46:28.180Z,23.11
2018-08-04T03:51:22.766Z,22.88
2018-08-04T03:56:17.379Z,22.82
2018-08-04T04:01:11.988Z,22.48
2018-08-04T04:06:06.724Z,22.72
2018-08-04T04:11:01.354Z,22.85
2018-08-04T04:15:56.034Z,23.00
2018-08-04T04:20:50.682Z,22.84
2018-08-04T04:25:45.304Z,22.69
2018-08-04T04:30:39.892Z,22.79
2018-08-04T04:35:34.549Z,22.66
2018-08-04T04:40:29.197Z,22.76
2018-08-04T04:45:23.779Z,23.04
2018-08-04T04:50:18.399Z,23.20
2018-08-04T04:55:13.018Z,23.66
2018-08-04T05:00:07.691Z,24.21
2018-08-04T05:05:02.295Z,24.50
2018-08-04T05:09:57.412Z,24.51
2018-08-04T05:14:51.982Z,25.04
2018-08-04T05:19:46.601Z,25.04
2018-08-04T05:24:41.209Z,25.33
2018-08-04T05:29:35.975Z,25.40
2018-08-04T05:34:30.599Z,25.54
2018-08-04T05:39:25.249Z,25.66
2018-08-04T05:44:19.934Z,25.71
2018-08-04T05:49:14.551Z,25.83
2018-08-04T05:54:08.844Z,25.83
2018-08-04T05:59:03.445Z,25.77
2018-08-04T06:03:58.053Z,25.75
2018-08-04T06:08:52.754Z,25.68
2018-08-04T06:13:47.916Z,25.65
2018-08-04T06:18:43.950Z,25.64
2018-08-04T06:23:38.526Z,25.67
2018-08-04T06:28:33.163Z,25.81
2018-08-04T06:33:27.755Z,25.76
2018-08-04T06:38:22.379Z,25.90
2018-08-04T06:43:17.013Z,26.03
2018-08-04T06:48:11.631Z,26.26
2018-08-04T06:53:06.335Z,26.43
2018-08-04T06:58:00.978Z,26.72
2018-08-04T07:02:55.670Z,26.83
2018-08-04T07:07:50.291Z,26.89
2018-08-04T07:12:44.970Z,27.18
2018-08-04T07:17:39.548Z,27.74
2018-08-04T07:22:34.238Z,28.01
2018-08-04T07:27:28.919Z,28.26
2018-08-04T07:32:23.507Z,28.17
2018-08-04T07:37:17.790Z,28.78
2018-08-04T07:42:12.429Z,28.73
2018-08-04T07:47:07.151Z,29.03
2018-08-04T07:52:02.428Z,29.15
2018-08-04T07:56:57.212Z,29.28
2018-08-04T08:01:51.930Z,29.22
2018-08-04T08:06:46.546Z,29.97
2018-08-04T08:11:41.214Z,29.86
2018-08-04T08:16:35.792Z,30.17
2018-08-04T08:21:30.475Z,30.57
2018-08-04T08:26:25.069Z,30.67
2018-08-04T08:31:19.931Z,30.71
2018-08-04T08:36:14.570Z,30.65
2018-08-04T08:41:10.059Z,30.86
2018-08-04T08:46:04.417Z,30.69
2018-08-04T08:50:59.067Z,30.98
2018-08-04T08:55:53.983Z,30.97
2018-08-04T09:00:48.345Z,31.13
2018-08-04T09:05:43.017Z,31.42
2018-08-04T09:10:37.664Z,31.84
2018-08-04T09:15:32.327Z,31.68
2018-08-04T09:20:28.370Z,31.75
2018-08-04T09:25:23.509Z,31.80
2018-08-04T09:30:18.102Z,32.30
2018-08-04T09:35:13.896Z,32.50
2018-08-04T09:40:11.894Z,32.59
2018-08-04T09:45:08.192Z,32.56
2018-08-04T09:50:02.842Z,32.60
2018-08-04T09:54:57.453Z,32.75
2018-08-04T09:59:52.153Z,32.72
2018-08-04T10:04:46.759Z,33.05
2018-08-04T10:09:41.371Z,32.67
2018-08-04T10:14:35.964Z,32.99
2018-08-04T10:19:30.552Z,33.26
2018-08-04T10:24:25.133Z,33.08
2018-08-04T10:29:19.748Z,33.36
2018-08-04T10:34:14.320Z,33.66
2018-08-04T10:39:10.377Z,34.06
2018-08-04T10:44:05.097Z,34.38
2018-08-04T10:48:59.728Z,34.49
2018-08-04T10:53:54.438Z,34.75
2018-08-04T10:58:48.999Z,35.36
2018-08-04T11:03:46.520Z,34.27
2018-08-04T11:08:41.146Z,34.63
2018-08-04T11:13:35.746Z,35.08
2018-08-04T11:18:30.368Z,35.62
2018-08-04T11:23:24.958Z,35.98
2018-08-04T11:28:19.509Z,36.11
2018-08-04T11:33:13.778Z,35.63
2018-08-04T11:38:08.347Z,35.66
2018-08-04T11:43:02.944Z,35.86
2018-08-04T11:47:57.551Z,36.26
2018-08-04T11:52:52.451Z,36.54
2018-08-04T11:57:47.064Z,36.48
2018-08-04T12:02:41.339Z,34.98
2018-08-04T12:07:35.974Z,34.47
2018-08-04T12:12:30.615Z,33.71
2018-08-04T12:17:25.385Z,33.28
2018-08-04T12:22:21.626Z,32.79
2018-08-04T12:27:16.271Z,32.78
2018-08-04T12:32:10.889Z,33.22
2018-08-04T12:37:05.569Z,33.07
2018-08-04T12:42:00.197Z,33.18
2018-08-04T12:46:54.815Z,33.16
2018-08-04T12:51:49.493Z,33.11
2018-08-04T12:56:44.100Z,33.07
2018-08-04T13:01:38.730Z,33.33
2018-08-04T13:06:33.813Z,33.66
2018-08-04T13:11:28.429Z,34.03
2018-08-04T13:16:23.089Z,34.30
2018-08-04T13:21:17.738Z,34.37
2018-08-04T13:26:12.328Z,34.48
2018-08-04T13:31:06.959Z,34.47
2018-08-04T13:36:01.583Z,34.57
2018-08-04T13:40:59.593Z,34.60
2018-08-04T13:45:54.367Z,34.46
2018-08-04T13:50:49.138Z,34.20
2018-08-04T13:55:43.896Z,34.11
2018-08-04T14:00:38.743Z,34.09
2018-08-04T14:05:33.640Z,34.15
2018-08-04T14:10:28.417Z,34.13
2018-08-04T14:15:22.788Z,34.10
2018-08-04T14:20:17.523Z,34.18
2018-08-04T14:25:25.123Z,34.20
2018-08-04T14:30:19.840Z,34.00
2018-08-04T14:35:14.512Z,33.83
2018-08-04T14:40:09.372Z,33.82
2018-08-04T14:45:04.232Z,34.03
2018-08-04T14:49:58.990Z,34.24
2018-08-04T14:54:53.752Z,33.91
2018-08-04T14:59:48.535Z,33.85
2018-08-04T15:04:43.419Z,33.82
2018-08-04T15:09:38.011Z,33.78
2018-08-04T15:14:32.707Z,33.40
2018-08-04T15:19:27.821Z,33.24
2018-08-04T15:24:22.630Z,33.33
2018-08-04T15:29:19.048Z,33.41
2018-08-04T15:34:13.918Z,33.46
2018-08-04T15:39:10.316Z,33.98
2018-08-04T15:44:04.907Z,33.94
2018-08-04T15:48:59.624Z,34.10
2018-08-04T15:53:54.401Z,33.95
2018-08-04T15:58:49.188Z,34.00
2018-08-04T16:03:44.206Z,33.49
2018-08-04T16:08:39.252Z,33.26
2018-08-04T16:13:34.223Z,32.98
2018-08-04T16:18:29.086Z,32.97
2018-08-04T16:23:23.820Z,32.84
2018-08-04T16:28:18.748Z,32.80
2018-08-04T16:33:13.584Z,32.87
2018-08-04T16:38:08.276Z,32.84
2018-08-04T16:43:02.998Z,32.65
2018-08-04T16:47:57.707Z,32.32
2018-08-04T16:52:52.441Z,32.11
2018-08-04T16:57:47.222Z,31.75
2018-08-04T17:02:42.361Z,31.61
2018-08-04T17:07:37.288Z,31.43
2018-08-04T17:12:32.211Z,31.29
2018-08-04T17:17:27.008Z,31.17
2018-08-04T17:22:21.785Z,31.06
2018-08-04T17:27:25.478Z,31.12
2018-08-04T17:32:21.176Z,30.96
2018-08-04T17:37:15.933Z,30.87
2018-08-04T17:42:10.651Z,30.79
2018-08-04T17:47:05.499Z,30.65
2018-08-04T17:52:00.320Z,30.58
2018-08-04T17:56:55.184Z,30.47
2018-08-04T18:01:50.791Z,30.39
2018-08-04T18:06:45.647Z,30.26
2018-08-04T18:11:40.860Z,30.17
2018-08-04T18:16:35.868Z,30.04
2018-08-04T18:21:30.929Z,30.06
2018-08-04T18:26:25.701Z,29.81
2018-08-04T18:31:20.468Z,29.90
2018-08-04T18:36:15.342Z,29.87
2018-08-04T18:41:10.132Z,29.73
2018-08-04T18:46:04.933Z,29.37
2018-08-04T18:50:59.834Z,29.56
2018-08-04T18:55:54.739Z,29.43
2018-08-04T19:00:49.511Z,29.21
2018-08-04T19:05:44.383Z,29.03
2018-08-04T19:10:39.171Z,29.05
2018-08-04T19:15:34.065Z,28.87
2018-08-04T19:20:28.959Z,28.87
2018-08-04T19:25:24.727Z,28.76
2018-08-04T19:30:19.517Z,28.78
2018-08-04T19:35:14.268Z,28.57
2018-08-04T19:40:09.255Z,28.38
2018-08-04T19:45:04.259Z,28.27
2018-08-04T19:49:59.113Z,28.19
2018-08-04T19:54:54.261Z,28.03
2018-08-04T19:59:49.851Z,28.00
2018-08-04T20:04:44.709Z,27.89
2018-08-04T20:09:39.667Z,27.86
2018-08-04T20:14:34.558Z,27.80
2018-08-04T20:19:29.399Z,27.64
2018-08-04T20:24:24.204Z,27.54
2018-08-04T20:29:19.234Z,27.38
2018-08-04T20:34:14.105Z,27.38
2018-08-04T20:39:10.723Z,27.32
2018-08-04T20:44:05.664Z,26.97
2018-08-04T20:49:00.464Z,26.94
2018-08-04T20:53:55.263Z,27.05
2018-08-04T20:58:50.239Z,27.14
2018-08-04T21:03:45.131Z,27.04
2018-08-04T21:08:39.939Z,26.93
2018-08-04T21:13:34.748Z,26.75
2018-08-04T21:18:29.645Z,26.66
2018-08-04T21:23:24.439Z,26.69
2018-08-04T21:28:20.032Z,26.64
2018-08-04T21:33:14.973Z,26.63
2018-08-04T21:38:09.736Z,26.29
2018-08-04T21:43:04.554Z,26.29
2018-08-04T21:47:59.319Z,26.12
2018-08-04T21:52:55.807Z,26.20
2018-08-04T21:57:50.639Z,26.23
2018-08-04T22:02:58.967Z,26.06
2018-08-04T22:08:11.566Z,25.98
2018-08-04T22:13:06.813Z,25.79
2018-08-04T22:18:01.727Z,25.93
2018-08-04T22:22:56.244Z,25.69
2018-08-04T22:27:51.310Z,25.79
2018-08-04T22:32:46.596Z,25.51
2018-08-04T22:37:41.922Z,25.42
2018-08-04T22:42:37.925Z,25.23
2018-08-04T22:47:32.834Z,25.49
2018-08-04T22:52:27.842Z,25.56
2018-08-04T22:57:22.607Z,25.47
2018-08-04T23:02:17.317Z,25.45
2018-08-04T23:07:12.123Z,25.06
2018-08-04T23:12:07.004Z,25.29
2018-08-04T23:17:02.018Z,25.23
2018-08-04T23:21:56.808Z,24.90
2018-08-04T23:26:52.042Z,24.86
2018-08-04T23:31:47.129Z,25.06
2018-08-04T23:36:41.910Z,24.79
2018-08-04T23:41:36.832Z,25.19
2018-08-04T23:46:31.338Z,25.15
2018-08-04T23:51:26.934Z,25.14
2018-08-04T23:56:21.812Z,25.10
